Time;durP1;ratioP1;P1;durP2;ratioP2;P2;SDS_P1;SDS_P2;PMS_P1;PMS_P2;Temp;Humidity;BMP_temperature;BMP_pressure;BME280_temperature;BME280_humidity;BME280_pressure;Samples;Min_cycle;Max_cycle;Signal;HPM_P1;HPM_P2
2020/12/03 00:00:49;;;;;;;31.33;20.45;;;;;;;18.71;46.37;100687.52;2279476;76;50354;-77
2020/12/03 00:03:53;;;;;;;33.50;21.07;;;;;;;18.69;46.34;100686.03;2288486;76;50458;-76
2020/12/03 00:06:57;;;;;;;31.70;20.90;;;;;;;18.68;46.30;100688.41;2279570;78;50807;-76
2020/12/03 00:09:59;;;;;;;29.32;19.52;;;;;;;18.67;46.27;100691.56;2310631;76;51602;-76
2020/12/03 00:13:07;;;;;;;33.05;20.43;;;;;;;18.65;46.32;100690.08;2317905;75;51503;-76
2020/12/03 00:16:10;;;;;;;33.13;20.48;;;;;;;18.65;46.18;100686.06;2312123;75;51661;-76
2020/12/03 00:19:12;;;;;;;32.98;21.42;;;;;;;18.63;46.37;100686.78;2317909;76;51562;-76
2020/12/03 00:22:15;;;;;;;30.45;19.45;;;;;;;18.60;46.34;100683.95;2317896;75;50313;-76
2020/12/03 00:25:17;;;;;;;32.58;20.48;;;;;;;18.58;46.41;100683.30;2281325;76;50763;-76
2020/12/03 00:28:19;;;;;;;31.95;20.50;;;;;;;18.58;46.40;100679.27;2279586;76;51486;-76
2020/12/03 00:31:21;;;;;;;31.82;21.85;;;;;;;18.56;46.38;100673.26;2279486;76;51490;-76
2020/12/03 00:34:23;;;;;;;30.92;20.48;;;;;;;18.55;46.42;100669.41;2311949;75;50405;-76
2020/12/03 00:37:26;;;;;;;30.15;20.48;;;;;;;18.56;46.30;100663.88;2316883;75;50433;-76
2020/12/03 00:40:28;;;;;;;33.67;21.57;;;;;;;18.53;46.34;100666.93;2317552;75;50719;-76
2020/12/03 00:43:30;;;;;;;31.82;19.87;;;;;;;18.55;46.25;100668.07;2317169;75;50698;-76
2020/12/03 00:46:32;;;;;;;38.23;20.10;;;;;;;18.54;46.33;100669.09;2308829;76;51471;-76
2020/12/03 00:49:35;;;;;;;32.23;20.48;;;;;;;18.52;46.48;100672.45;2279161;78;50677;-76
2020/12/03 00:52:37;;;;;;;32.33;20.92;;;;;;;18.50;46.31;100674.00;2301537;75;51571;-76
2020/12/03 00:55:39;;;;;;;32.83;21.00;;;;;;;18.49;46.29;100661.59;2316789;76;51506;-77
2020/12/03 00:58:41;;;;;;;29.40;20.40;;;;;;;18.49;46.28;100663.77;2316907;76;51465;-76
2020/12/03 01:01:44;;;;;;;30.70;20.23;;;;;;;18.46;46.28;100659.29;2317547;76;51458;-76
2020/12/03 01:04:46;;;;;;;31.97;20.75;;;;;;;18.44;46.34;100658.12;2316565;75;51611;-76
2020/12/03 01:08:03;;;;;;;33.80;20.60;;;;;;;18.44;46.32;100660.80;2316351;76;50271;-76
2020/12/03 01:11:05;;;;;;;29.55;20.12;;;;;;;18.46;46.28;100657.44;2280557;75;51367;-76
2020/12/03 01:14:08;;;;;;;30.20;21.05;;;;;;;18.43;46.38;100655.13;2291488;76;50424;-76
2020/12/03 01:17:12;;;;;;;32.35;20.75;;;;;;;18.41;46.41;100651.79;2279907;76;50696;-77
2020/12/03 01:20:20;;;;;;;34.57;21.00;;;;;;;18.42;46.37;100638.73;2196922;79;50437;-77
2020/12/03 01:23:22;;;;;;;33.92;21.17;;;;;;;18.40;46.25;100635.91;2299017;75;50676;-77
2020/12/03 01:26:24;;;;;;;30.50;20.68;;;;;;;18.37;46.27;100624.20;2318251;75;51641;-77
2020/12/03 01:29:26;;;;;;;30.10;20.70;;;;;;;18.35;46.29;100625.73;2285371;76;51427;-77
2020/12/03 01:32:29;;;;;;;34.78;21.42;;;;;;;18.35;46.21;100624.41;2281556;76;50352;-77
2020/12/03 01:35:31;;;;;;;31.85;21.95;;;;;;;18.35;46.25;100612.34;2279638;78;50743;-77
2020/12/03 01:38:33;;;;;;;34.98;21.80;;;;;;;18.38;46.12;100605.79;2299158;76;51527;-77
2020/12/03 01:41:35;;;;;;;32.30;20.60;;;;;;;18.37;46.10;100606.30;2317994;76;51605;-77
2020/12/03 01:44:43;;;;;;;36.05;21.95;;;;;;;18.35;46.05;100598.95;2285522;76;50291;-77
2020/12/03 01:55:39;;;;;;;30.00;20.90;;;;;;;18.34;46.07;100595.10;2287153;76;22301;-76
2020/12/03 01:58:43;;;;;;;31.97;20.35;;;;;;;18.32;46.00;100592.63;2317500;76;51492;-76
2020/12/03 02:01:45;;;;;;;31.57;21.17;;;;;;;18.32;46.01;100574.39;2316523;76;52504;-76
2020/12/03 02:05:19;;;;;;;30.72;20.27;;;;;;;18.29;45.96;100567.55;2295469;76;51504;-77
2020/12/03 02:08:21;;;;;;;32.33;20.88;;;;;;;18.28;45.94;100558.66;2283199;76;51541;-76
2020/12/03 02:11:23;;;;;;;32.90;21.25;;;;;;;18.26;45.99;100554.50;2317504;76;51510;-76
2020/12/03 02:14:26;;;;;;;33.53;21.75;;;;;;;18.25;46.01;100556.87;2316564;75;52302;-77
2020/12/03 02:17:28;;;;;;;35.60;21.12;;;;;;;18.26;45.98;100551.34;2317470;76;50494;-75
2020/12/03 02:20:30;;;;;;;30.32;20.88;;;;;;;18.24;45.82;100550.69;2286988;76;50375;-76
2020/12/03 02:23:32;;;;;;;32.13;21.27;;;;;;;18.24;45.91;100537.30;2282566;76;50714;-75
2020/12/03 02:26:34;;;;;;;35.25;22.00;;;;;;;18.23;45.97;100521.39;2317474;76;51600;-75
2020/12/03 02:29:37;;;;;;;32.90;21.10;;;;;;;18.22;45.82;100513.88;2300549;76;51514;-76
2020/12/03 02:33:21;;;;;;;35.23;21.60;;;;;;;18.22;45.89;100501.00;2289430;76;50235;-76
2020/12/03 02:36:23;;;;;;;31.70;20.97;;;;;;;18.21;45.92;100500.66;2279429;76;50294;-76
2020/12/03 02:39:26;;;;;;;33.63;21.30;;;;;;;18.19;45.82;100494.68;2279042;78;50680;-76
2020/12/03 02:42:28;;;;;;;32.40;21.35;;;;;;;18.18;45.83;100487.64;2294800;75;51447;-76
2020/12/03 02:45:31;;;;;;;35.20;21.77;;;;;;;18.17;45.84;100486.81;2317649;76;50745;-76
2020/12/03 02:48:33;;;;;;;34.30;21.68;;;;;;;18.17;45.92;100477.95;2317013;76;51510;-76
2020/12/03 02:51:35;;;;;;;31.20;20.88;;;;;;;18.14;45.79;100473.80;2317428;76;50383;-76
2020/12/03 02:54:37;;;;;;;35.58;20.77;;;;;;;18.14;45.75;100463.60;2317996;75;50694;-77
2020/12/03 02:57:39;;;;;;;31.80;20.92;;;;;;;18.13;45.73;100461.92;2316952;76;50346;-76
2020/12/03 03:00:42;;;;;;;31.65;21.23;;;;;;;18.13;45.82;100463.27;2317043;76;51555;-75
2020/12/03 03:03:44;;;;;;;36.70;22.40;;;;;;;18.13;45.76;100460.58;2317364;76;52274;-76
2020/12/03 03:06:46;;;;;;;34.30;22.05;;;;;;;18.12;45.79;100456.25;2285182;76;51531;-77
2020/12/03 03:09:48;;;;;;;32.60;21.40;;;;;;;18.11;45.85;100454.58;2299956;75;50296;-75
2020/12/03 03:12:50;;;;;;;34.58;21.95;;;;;;;18.10;45.81;100443.55;2317497;75;50809;-77
2020/12/03 03:15:53;;;;;;;30.80;21.68;;;;;;;18.11;45.90;100442.53;2299230;76;50498;-76
2020/12/03 03:18:55;;;;;;;36.10;21.85;;;;;;;18.09;45.83;100437.89;2279031;77;50302;-75
2020/12/03 03:21:57;;;;;;;33.20;21.87;;;;;;;18.07;45.69;100432.70;2309985;75;50624;-76
2020/12/03 03:24:59;;;;;;;32.85;22.20;;;;;;;18.07;45.78;100434.05;2312629;75;51543;-76
2020/12/03 03:28:01;;;;;;;33.30;21.82;;;;;;;18.09;45.70;100433.36;2279606;78;51535;-75
2020/12/03 03:31:04;;;;;;;33.08;21.85;;;;;;;18.05;45.61;100429.38;2296956;76;51501;-75
2020/12/03 03:34:06;;;;;;;33.63;21.68;;;;;;;18.06;45.72;100432.39;2316662;75;50447;-76
2020/12/03 03:37:08;;;;;;;33.28;22.93;;;;;;;18.06;45.70;100436.41;2317493;76;50696;-76
2020/12/03 03:40:10;;;;;;;38.48;22.65;;;;;;;18.05;45.63;100432.88;2283917;76;51641;-76
2020/12/03 03:43:12;;;;;;;36.45;22.45;;;;;;;18.04;45.62;100433.08;2311994;75;51524;-76
2020/12/03 03:46:15;;;;;;;32.05;22.17;;;;;;;18.01;45.67;100436.95;2304818;76;50340;-76
2020/12/03 03:49:17;;;;;;;33.28;21.87;;;;;;;18.01;45.73;100431.61;2317505;76;50327;-76
2020/12/03 03:52:19;;;;;;;35.63;22.37;;;;;;;18.01;45.47;100421.41;2290519;76;51458;-76
2020/12/03 03:55:21;;;;;;;33.55;22.13;;;;;;;18.01;45.57;100417.39;2279263;76;51507;-75
2020/12/03 03:58:23;;;;;;;34.63;22.85;;;;;;;18.00;45.57;100417.88;2317315;76;51535;-75
2020/12/03 04:01:26;;;;;;;32.35;23.05;;;;;;;17.99;45.56;100408.19;2298089;76;50243;-75
2020/12/03 04:04:28;;;;;;;34.53;22.05;;;;;;;17.97;45.61;100400.84;2312963;75;50382;-76
2020/12/03 04:07:30;;;;;;;36.33;22.48;;;;;;;17.97;45.73;100390.14;2316704;76;51521;-76
2020/12/03 04:10:32;;;;;;;33.98;22.65;;;;;;;17.97;45.61;100388.80;2310634;76;51562;-76
2020/12/03 04:13:34;;;;;;;34.13;22.55;;;;;;;17.97;45.64;100383.45;2278768;77;51516;-76
2020/12/03 04:16:37;;;;;;;33.48;22.32;;;;;;;17.95;45.49;100376.62;2278841;76;51589;-75
2020/12/03 04:19:39;;;;;;;40.10;24.30;;;;;;;17.95;45.69;100373.94;2278939;78;50352;-76
2020/12/03 04:22:41;;;;;;;35.90;23.30;;;;;;;17.92;45.53;100376.48;2311316;75;50465;-76
2020/12/03 04:25:43;;;;;;;36.68;24.02;;;;;;;17.94;45.58;100379.81;2310847;76;50701;-76
2020/12/03 04:28:45;;;;;;;38.95;23.00;;;;;;;17.92;45.42;100370.30;2283327;76;50681;-76
2020/12/03 04:31:48;;;;;;;38.78;24.07;;;;;;;17.91;45.61;100374.83;2317347;76;51584;-76
2020/12/03 04:34:50;;;;;;;36.63;23.25;;;;;;;17.90;45.55;100362.45;2279539;76;50298;-76
2020/12/03 04:37:52;;;;;;;36.48;23.85;;;;;;;17.91;45.62;100361.45;2278945;78;50708;-76
2020/12/03 04:40:54;;;;;;;34.40;24.00;;;;;;;17.88;45.54;100361.83;2314405;76;51472;-76
2020/12/03 04:44:00;;;;;;;34.70;23.52;;;;;;;17.87;45.68;100365.50;2331216;75;51643;-75
2020/12/03 04:47:03;;;;;;;;;;;;;;;17.88;45.52;100368.52;2320212;75;50410;-75
2020/12/03 04:50:37;;;;;;;36.88;23.45;;;;;;;17.87;45.51;100359.33;2294530;76;51688;-76
2020/12/03 04:53:51;;;;;;;36.33;23.65;;;;;;;17.86;45.48;100357.16;2279678;76;51635;-76
2020/12/03 04:56:59;;;;;;;37.60;22.90;;;;;;;17.84;45.46;100358.67;2200917;79;50772;-76
2020/12/03 05:00:05;;;;;;;41.20;25.37;;;;;;;17.84;45.54;100355.99;2279038;76;50468;-76
2020/12/03 05:03:20;;;;;;;40.52;25.10;;;;;;;17.81;45.44;100355.55;2304186;76;50451;-76
2020/12/03 05:06:34;;;;;;;34.10;23.40;;;;;;;17.83;45.58;100346.83;2317776;75;51555;-76
2020/12/03 05:09:48;;;;;;;38.23;24.52;;;;;;;17.82;45.60;100346.48;2316572;76;51419;-76
2020/12/03 05:12:50;;;;;;;43.25;26.00;;;;;;;17.81;45.47;100338.98;2299103;76;51598;-76
2020/12/03 05:15:55;;;;;;;38.83;24.87;;;;;;;17.81;45.44;100327.45;2279851;76;51545;-76
2020/12/03 05:19:02;;;;;;;42.65;26.68;;;;;;;17.81;45.38;100324.25;2280227;76;50411;-76
2020/12/03 05:22:19;;;;;;;40.80;26.50;;;;;;;17.79;45.33;100328.09;2286637;76;50760;-76
2020/12/03 05:25:21;;;;;;;39.48;25.55;;;;;;;17.80;45.24;100328.44;2302874;76;51308;-76
2020/12/03 05:28:43;;;;;;;41.83;25.60;;;;;;;17.80;45.11;100327.10;2279184;78;51550;-75
2020/12/03 05:31:46;;;;;;;36.70;24.77;;;;;;;17.81;45.12;100318.91;2279069;78;50263;-76
2020/12/03 05:34:48;;;;;;;38.73;24.80;;;;;;;17.84;45.25;100323.05;2278956;76;50676;-76
2020/12/03 05:37:51;;;;;;;39.80;25.90;;;;;;;17.86;45.32;100325.05;2278859;77;51516;-76
2020/12/03 05:41:01;;;;;;;41.85;25.65;;;;;;;17.92;45.13;100324.28;2284454;76;51510;-77
2020/12/03 05:44:09;;;;;;;39.23;24.98;;;;;;;17.95;45.21;100320.41;2324068;76;51677;-78
2020/12/03 05:47:24;;;;;;;40.38;25.65;;;;;;;17.99;45.22;100312.34;2316605;76;51573;-76
2020/12/03 05:50:35;;;;;;;42.23;27.22;;;;;;;18.01;44.97;100312.47;2313923;76;50455;-76
2020/12/03 05:53:37;;;;;;;43.75;26.27;;;;;;;18.01;44.97;100312.47;2301760;75;50433;-76
2020/12/03 05:56:39;;;;;;;38.67;24.98;;;;;;;18.03;44.94;100309.10;2278904;77;50407;-76
2020/12/03 05:59:42;;;;;;;39.88;25.05;;;;;;;18.11;44.93;100310.84;2304352;75;51548;-76
2020/12/03 06:02:50;;;;;;;39.60;24.07;;;;;;;18.12;45.27;100300.95;2279579;76;50641;-76
2020/12/03 06:06:05;;;;;;;42.60;25.90;;;;;;;18.17;45.28;100298.55;2279005;77;51620;-76
2020/12/03 06:09:14;;;;;;;42.83;25.50;;;;;;;18.25;45.15;100288.53;2306431;76;51404;-76
2020/12/03 06:12:37;;;;;;;40.20;25.25;;;;;;;18.28;44.88;100290.00;2315494;75;50339;-76
2020/12/03 06:15:42;;;;;;;46.45;26.70;;;;;;;18.33;45.01;100282.23;2317419;76;50441;-77
2020/12/03 06:19:04;;;;;;;48.15;24.87;;;;;;;18.38;44.96;100287.84;2317316;76;50758;-77
2020/12/03 06:22:33;;;;;;;41.95;24.27;;;;;;;18.42;45.87;100291.81;2308089;76;51716;-77
2020/12/03 06:25:38;;;;;;;47.43;26.17;;;;;;;18.45;48.35;100290.60;2283643;76;50071;-78
2020/12/03 06:29:15;;;;;;;38.92;24.70;;;;;;;18.49;47.42;100294.02;2293404;76;51137;-77
2020/12/03 06:32:53;;;;;;;47.60;25.00;;;;;;;18.63;47.01;100296.86;2278933;78;51614;-77
2020/12/03 06:36:01;;;;;;;39.48;24.30;;;;;;;18.63;46.92;100290.16;2301535;76;51437;-76
2020/12/03 06:39:18;;;;;;;44.90;25.05;;;;;;;18.65;46.93;100290.77;2291365;76;51641;-77
2020/12/03 06:42:35;;;;;;;43.95;23.57;;;;;;;18.67;46.73;100298.11;2317549;75;52955;-76
2020/12/03 06:45:50;;;;;;;45.73;23.52;;;;;;;18.68;46.70;100295.77;2297746;76;50409;-76
2020/12/03 06:49:08;;;;;;;42.50;23.83;;;;;;;18.70;46.57;100290.53;2254373;78;50290;-76
2020/12/03 06:52:23;;;;;;;44.35;24.18;;;;;;;18.69;46.54;100290.20;2286648;76;50716;-76
2020/12/03 06:56:02;;;;;;;43.58;25.05;;;;;;;18.71;46.50;100293.52;2292676;76;51578;-77
2020/12/03 06:59:10;;;;;;;49.53;24.43;;;;;;;18.75;46.46;100289.97;2279839;77;50718;-77
2020/12/03 07:02:46;;;;;;;46.30;24.52;;;;;;;18.74;46.41;100284.78;2298113;75;51508;-77
2020/12/03 07:06:03;;;;;;;42.35;24.75;;;;;;;18.77;46.34;100287.11;2304862;76;51492;-76
2020/12/03 07:09:26;;;;;;;46.85;24.85;;;;;;;18.79;46.24;100280.53;2283148;75;51532;-77
2020/12/03 07:12:54;;;;;;;40.23;22.93;;;;;;;18.83;46.09;100272.92;2288912;76;52213;-76
2020/12/03 07:16:32;;;;;;;44.65;23.45;;;;;;;18.88;45.89;100279.38;2258842;77;50404;-77
2020/12/03 07:19:50;;;;;;;46.05;25.12;;;;;;;18.87;45.96;100282.24;2301175;77;50677;-76
2020/12/03 07:22:55;;;;;;;36.85;22.30;;;;;;;18.89;45.83;100261.44;2285961;77;50817;-76
2020/12/03 07:25:57;;;;;;;40.20;23.25;;;;;;;18.96;45.68;100258.79;2260694;77;51612;-77
2020/12/03 07:29:00;;;;;;;40.52;23.12;;;;;;;18.96;45.59;100262.33;2263707;77;51495;-77
2020/12/03 07:32:02;;;;;;;34.78;21.97;;;;;;;18.96;45.60;100258.79;2284430;77;51462;-77
2020/12/03 07:35:27;;;;;;;34.53;22.70;;;;;;;18.97;45.52;100256.45;2219513;78;52513;-77
2020/12/03 07:38:32;;;;;;;43.05;23.42;;;;;;;18.98;45.44;100249.53;2270566;77;51548;-77
2020/12/03 07:41:38;;;;;;;41.88;24.07;;;;;;;19.10;45.20;100240.44;2278981;78;51469;-77
2020/12/03 07:44:42;;;;;;;37.90;21.70;;;;;;;19.13;45.28;100236.84;2278604;77;51560;-76
2020/12/03 07:47:44;;;;;;;37.35;22.05;;;;;;;19.25;45.01;100232.29;2296234;77;51675;-77
2020/12/03 07:50:51;;;;;;;34.05;21.40;;;;;;;19.40;44.63;100234.85;2230950;78;50735;-77
2020/12/03 07:54:19;;;;;;;38.63;22.55;;;;;;;19.36;44.63;100228.52;2306340;75;50382;-77
2020/12/03 07:57:37;;;;;;;51.75;22.15;;;;;;;19.45;44.37;100232.41;2318054;76;50472;-77
2020/12/03 08:00:44;;;;;;;38.42;22.90;;;;;;;19.46;44.24;100229.50;2313669;76;50711;-73
2020/12/03 08:03:47;;;;;;;48.40;23.35;;;;;;;19.51;44.07;100228.39;2312035;76;51431;-74
2020/12/03 08:07:14;;;;;;;39.00;20.68;;;;;;;19.44;44.37;100216.80;2277288;78;51539;-74
2020/12/03 08:10:39;;;;;;;40.60;22.65;;;;;;;19.46;44.41;100204.53;2277694;76;50456;-75
2020/12/03 08:13:41;;;;;;;42.20;22.82;;;;;;;19.50;44.33;100203.13;2315254;76;50361;-75
2020/12/03 08:16:44;;;;;;;34.75;21.35;;;;;;;19.51;44.30;100202.08;2309896;76;50329;-75
2020/12/03 08:19:58;;;;;;;36.53;21.12;;;;;;;19.48;44.37;100199.80;2310833;76;50444;-76
2020/12/03 08:23:03;;;;;;;42.73;22.10;;;;;;;19.50;44.29;100188.36;2315673;76;50381;-75
2020/12/03 08:26:05;;;;;;;36.73;22.13;;;;;;;19.50;44.30;100192.38;2314980;75;50566;-75
2020/12/03 08:29:11;;;;;;;40.40;22.55;;;;;;;19.55;44.15;100185.38;2281846;76;50210;-74
2020/12/03 08:32:12;;;;;;;40.88;21.95;;;;;;;19.55;44.56;100177.33;2315432;76;50500;-75
2020/12/03 08:35:14;;;;;;;35.10;20.55;;;;;;;19.57;44.48;100181.14;2298153;76;50442;-75
2020/12/03 08:38:23;;;;;;;40.75;22.48;;;;;;;19.59;44.33;100183.11;2316384;76;50712;-75
2020/12/03 08:41:27;;;;;;;36.58;22.45;;;;;;;19.62;44.20;100187.25;2317687;76;50279;-75
2020/12/03 08:44:29;;;;;;;35.23;21.48;;;;;;;19.65;44.07;100187.70;2298972;75;50776;-75
2020/12/03 08:47:37;;;;;;;35.68;20.75;;;;;;;19.66;43.99;100189.34;2305395;75;50791;-75
2020/12/03 08:50:39;;;;;;;37.48;21.48;;;;;;;19.71;43.79;100189.59;2279088;77;50243;-75
2020/12/03 08:53:46;;;;;;;33.05;20.88;;;;;;;19.72;43.78;100197.13;2279995;76;50221;-76
2020/12/03 08:56:48;;;;;;;33.98;21.00;;;;;;;19.66;43.87;100188.00;2278933;78;50659;-76
2020/12/03 08:59:52;;;;;;;35.55;21.80;;;;;;;19.70;43.71;100183.89;2282853;76;52370;-76
2020/12/03 09:02:55;;;;;;;33.92;20.23;;;;;;;19.74;43.58;100186.50;2308287;76;51576;-76
2020/12/03 09:05:57;;;;;;;33.23;20.85;;;;;;;19.77;43.50;100178.03;2328552;76;51430;-75
2020/12/03 09:09:02;;;;;;;38.05;21.15;;;;;;;19.76;43.55;100172.37;2310836;76;50373;-75
2020/12/03 09:12:04;;;;;;;34.60;21.12;;;;;;;19.79;43.56;100167.93;2313221;76;50059;-75
2020/12/03 09:15:07;;;;;;;31.25;19.10;;;;;;;19.76;43.60;100160.29;2314332;76;51522;-75
2020/12/03 09:18:10;;;;;;;37.13;20.65;;;;;;;19.78;43.49;100151.52;2316692;76;50474;-75
2020/12/03 09:21:13;;;;;;;34.18;21.05;;;;;;;19.82;43.35;100149.77;2293567;76;52885;-75
2020/12/03 09:24:15;;;;;;;33.38;20.80;;;;;;;19.78;43.43;100138.10;2293238;76;50244;-75
2020/12/03 09:27:17;;;;;;;31.52;21.20;;;;;;;19.82;43.33;100143.06;2310261;76;50759;-76
2020/12/03 09:30:24;;;;;;;32.67;20.80;;;;;;;19.86;43.24;100129.52;2308501;76;50385;-75
2020/12/03 09:33:26;;;;;;;32.50;19.32;;;;;;;19.86;43.22;100121.47;2279261;76;50308;-75
2020/12/03 09:36:28;;;;;;;36.53;21.85;;;;;;;19.86;43.15;100115.61;2291066;76;50361;-76
2020/12/03 09:39:32;;;;;;;34.00;20.43;;;;;;;19.88;43.09;100118.06;2304299;76;50388;-75
2020/12/03 09:42:41;;;;;;;33.33;20.62;;;;;;;19.91;43.03;100114.48;2315999;75;50746;-75
2020/12/03 09:45:41;;;;;;;29.37;19.57;;;;;;;19.91;42.97;100102.39;2317374;76;23142;-75
2020/12/03 09:48:42;;;;;;;30.82;19.98;;;;;;;19.89;42.97;100095.58;2288026;76;22450;-75
2020/12/03 09:51:46;;;;;;;31.33;20.40;;;;;;;19.98;42.77;100094.33;2281980;76;50615;-76
2020/12/03 09:54:48;;;;;;;36.10;21.00;;;;;;;19.94;42.86;100087.73;2275100;78;50175;-75
2020/12/03 09:57:55;;;;;;;32.17;21.05;;;;;;;19.98;42.79;100086.27;2277741;76;50271;-75
2020/12/03 10:00:59;;;;;;;26.77;18.50;;;;;;;19.98;42.76;100079.03;2279173;77;50286;-75
2020/12/03 10:04:19;;;;;;;32.63;19.87;;;;;;;19.92;42.93;100073.67;2300507;75;51511;-75
2020/12/03 10:07:46;;;;;;;31.77;20.25;;;;;;;19.95;42.87;100070.05;2287638;76;51470;-75
2020/12/03 10:11:20;;;;;;;29.63;19.57;;;;;;;19.99;42.82;100073.17;2281984;76;51634;-75
2020/12/03 10:14:55;;;;;;;28.35;19.67;;;;;;;19.98;42.87;100074.19;2299656;75;50468;-76
2020/12/03 10:18:04;;;;;;;30.97;19.83;;;;;;;20.01;42.81;100067.05;2319276;76;51244;-74
2020/12/03 10:21:06;;;;;;;29.02;18.50;;;;;;;19.97;42.90;100053.75;2288415;75;50402;-75
2020/12/03 10:24:16;;;;;;;29.15;18.77;;;;;;;19.98;42.93;100048.67;2295091;76;51583;-75
2020/12/03 10:27:21;;;;;;;29.75;19.55;;;;;;;20.04;42.79;100037.13;2305015;76;50433;-75
2020/12/03 10:30:37;;;;;;;31.35;19.45;;;;;;;20.08;42.71;100041.55;2318975;76;51518;-76
2020/12/03 10:33:39;;;;;;;28.57;19.10;;;;;;;20.03;42.86;100034.11;2315748;75;51260;-75
2020/12/03 10:36:54;;;;;;;29.48;19.02;;;;;;;20.04;42.86;100029.06;2317880;76;50527;-76
2020/12/03 10:40:05;;;;;;;31.52;18.67;;;;;;;20.00;42.92;100017.89;2317062;75;50428;-75
2020/12/03 10:43:19;;;;;;;29.00;19.32;;;;;;;20.07;42.81;100009.03;2313579;75;51532;-75
2020/12/03 10:46:22;;;;;;;29.50;18.90;;;;;;;20.07;42.84;100007.16;2317680;76;22327;-75
2020/12/03 10:49:24;;;;;;;27.00;18.00;;;;;;;20.15;42.68;99996.72;2298888;76;22421;-76
2020/12/03 10:52:27;;;;;;;29.00;18.25;;;;;;;20.10;42.75;99994.65;2301437;76;50498;-75
2020/12/03 10:55:29;;;;;;;27.32;18.20;;;;;;;20.08;42.80;99990.00;2294333;76;51473;-75
2020/12/03 10:58:55;;;;;;;25.70;17.40;;;;;;;20.12;42.73;99981.02;2291356;75;51489;-76
2020/12/03 11:01:54;;;;;;;27.85;18.40;;;;;;;20.13;42.72;99976.77;2280239;76;22271;-75
2020/12/03 11:04:56;;;;;;;29.65;18.67;;;;;;;20.12;42.74;99959.02;2279229;78;50658;-76
2020/12/03 11:07:59;;;;;;;25.57;17.50;;;;;;;20.15;42.70;99962.62;2280281;77;50353;-76
2020/12/03 11:11:01;;;;;;;26.10;17.12;;;;;;;20.13;42.81;99960.66;2315217;75;51406;-76
2020/12/03 11:14:11;;;;;;;25.75;17.45;;;;;;;20.14;42.85;99952.92;2317924;75;51531;-76
2020/12/03 11:17:19;;;;;;;27.52;17.98;;;;;;;20.16;42.85;99950.83;2284811;76;50649;-75
2020/12/03 11:20:22;;;;;;;25.27;17.60;;;;;;;20.16;42.88;99947.32;2294009;77;50222;-75
2020/12/03 11:23:24;;;;;;;26.12;16.75;;;;;;;20.19;42.86;99941.52;2297127;77;51683;-75
2020/12/03 11:26:28;;;;;;;28.75;17.73;;;;;;;20.21;42.88;99929.53;2297403;77;51619;-75
2020/12/03 11:29:35;;;;;;;26.73;17.40;;;;;;;20.20;42.93;99914.46;2297409;76;51496;-76
2020/12/03 11:32:41;;;;;;;24.50;16.77;;;;;;;20.20;42.94;99921.70;2306816;76;50060;-75
2020/12/03 11:35:43;;;;;;;25.48;16.90;;;;;;;20.22;42.93;99919.11;2318607;76;50481;-75
2020/12/03 11:38:53;;;;;;;24.63;15.95;;;;;;;20.20;42.98;99917.15;2317734;76;50410;-76
2020/12/03 11:42:25;;;;;;;24.90;17.00;;;;;;;20.26;42.87;99904.72;2311881;76;50558;-75
2020/12/03 11:45:42;;;;;;;24.50;16.67;;;;;;;20.26;42.90;99905.25;2292529;76;23089;-76
2020/12/03 11:51:37;;;;;;;22.70;15.63;;;;;;;20.25;42.90;99904.43;2318329;75;22265;-76
2020/12/03 11:54:39;;;;;;;24.20;16.12;;;;;;;20.23;42.94;99895.75;2317545;76;50662;-75
2020/12/03 11:57:41;;;;;;;23.87;15.90;;;;;;;20.26;42.91;99894.50;2317046;76;51501;-76
2020/12/03 12:00:44;;;;;;;25.17;16.42;;;;;;;20.23;42.99;99889.85;2317554;76;51488;-75
2020/12/03 12:03:49;;;;;;;24.87;16.48;;;;;;;20.32;42.85;99885.09;2289446;76;51518;-76
2020/12/03 12:07:12;;;;;;;23.10;16.17;;;;;;;20.27;42.90;99884.90;2282325;76;22391;-75
2020/12/03 12:10:18;;;;;;;22.82;15.30;;;;;;;20.28;42.92;99882.51;2308559;76;22305;-76
2020/12/03 12:13:15;;;;;;;21.05;14.90;;;;;;;20.28;42.93;99875.79;2315067;75;22756;-75
2020/12/03 12:16:17;;;;;;;23.50;16.00;;;;;;;20.30;42.85;99871.03;2318113;76;50756;-75
2020/12/03 12:19:19;;;;;;;23.12;15.35;;;;;;;20.39;42.67;99868.39;2317706;76;50318;-75
2020/12/03 12:22:21;;;;;;;23.25;15.23;;;;;;;20.35;42.80;99861.00;2311097;76;51474;-75
2020/12/03 12:25:23;;;;;;;23.90;15.50;;;;;;;20.38;42.69;99860.04;2279383;78;51493;-76
2020/12/03 12:28:26;;;;;;;24.30;16.07;;;;;;;20.35;42.79;99851.59;2299161;76;50391;-76
2020/12/03 12:31:28;;;;;;;23.85;16.17;;;;;;;20.33;42.82;99846.42;2302347;76;50374;-75
2020/12/03 12:34:31;;;;;;;24.60;15.63;;;;;;;20.35;42.80;99843.02;2279336;78;50700;-76
2020/12/03 12:37:33;;;;;;;20.48;15.08;;;;;;;20.35;42.83;99843.53;2308559;76;51530;-77
2020/12/03 12:40:35;;;;;;;21.25;14.10;;;;;;;20.31;42.91;99831.56;2317109;76;50305;-75
2020/12/03 12:43:37;;;;;;;22.20;14.98;;;;;;;20.37;42.80;99831.53;2303611;75;51508;-74
2020/12/03 12:46:40;;;;;;;22.17;14.68;;;;;;;20.37;42.79;99831.53;2309342;76;51588;-75
2020/12/03 12:49:42;;;;;;;23.52;15.83;;;;;;;20.36;42.85;99822.33;2294003;76;50791;-75
2020/12/03 12:52:44;;;;;;;22.15;14.60;;;;;;;20.37;42.88;99818.09;2294554;76;50361;-76
2020/12/03 12:55:46;;;;;;;21.00;14.50;;;;;;;20.33;42.93;99826.27;2310604;76;50677;-75
2020/12/03 12:58:48;;;;;;;21.65;15.25;;;;;;;20.33;42.96;99814.19;2315234;76;51538;-77
2020/12/03 13:01:51;;;;;;;20.88;14.75;;;;;;;20.44;42.71;99801.92;2314491;76;51630;-76
2020/12/03 13:04:53;;;;;;;18.20;13.45;;;;;;;20.39;42.82;99805.77;2279263;76;50312;-75
2020/12/03 13:07:55;;;;;;;21.65;14.95;;;;;;;20.37;42.84;99794.41;2280207;76;50720;-75
2020/12/03 13:10:58;;;;;;;24.65;14.68;;;;;;;20.40;42.78;99794.01;2279691;76;51528;-74
2020/12/03 13:14:00;;;;;;;19.77;14.45;;;;;;;20.37;42.84;99797.09;2285949;76;51502;-74
2020/12/03 13:17:02;;;;;;;21.52;14.85;;;;;;;20.37;42.83;99789.04;2306805;76;50166;-74
2020/12/03 13:20:04;;;;;;;21.75;14.55;;;;;;;20.35;42.91;99790.62;2306660;76;50758;-74
2020/12/03 13:23:07;;;;;;;20.82;14.20;;;;;;;20.35;42.98;99789.80;2286804;76;51531;-75
2020/12/03 13:26:16;;;;;;;20.95;13.65;;;;;;;20.35;43.01;99786.59;2318293;76;51477;-75
2020/12/03 13:29:17;;;;;;;20.43;13.90;;;;;;;20.39;42.93;99795.84;2297282;76;22220;-75
2020/12/03 13:32:20;;;;;;;19.82;13.72;;;;;;;20.38;42.99;99787.49;2277171;76;50463;-75
2020/12/03 13:35:22;;;;;;;19.67;13.32;;;;;;;20.42;42.86;99774.44;2292654;76;50719;-75
2020/12/03 13:38:24;;;;;;;18.37;12.98;;;;;;;20.42;42.89;99775.29;2317620;76;51539;-75
2020/12/03 13:41:26;;;;;;;20.45;13.70;;;;;;;20.44;42.80;99763.78;2288568;76;51403;-75
2020/12/03 13:44:28;;;;;;;19.77;14.30;;;;;;;20.45;42.74;99765.97;2304295;76;51630;-75
2020/12/03 13:47:31;;;;;;;20.92;13.55;;;;;;;20.44;42.79;99769.67;2297968;76;50382;-75
2020/12/03 13:50:34;;;;;;;20.62;14.23;;;;;;;20.42;42.84;99771.75;2316996;76;50363;-75
2020/12/03 13:53:36;;;;;;;19.27;12.88;;;;;;;20.44;42.83;99768.33;2317959;75;50763;-76
2020/12/03 13:56:38;;;;;;;19.15;13.30;;;;;;;20.42;42.87;99755.13;2318408;76;50441;-75
2020/12/03 13:59:40;;;;;;;19.17;14.18;;;;;;;20.41;42.95;99758.02;2317487;76;50696;-76
2020/12/03 14:02:42;;;;;;;18.30;13.22;;;;;;;20.41;42.98;99768.77;2279927;76;51523;-76
2020/12/03 14:05:45;;;;;;;20.12;13.28;;;;;;;20.39;43.03;99761.45;2279161;76;51477;-75
2020/12/03 14:08:52;;;;;;;17.50;12.95;;;;;;;20.41;42.98;99758.02;2290587;76;51505;-73
2020/12/03 14:11:55;;;;;;;17.30;12.98;;;;;;;20.43;43.00;99759.98;2317580;76;51545;-74
2020/12/03 14:14:57;;;;;;;22.22;12.90;;;;;;;20.40;43.04;99750.48;2318345;75;51516;-76
2020/12/03 14:17:59;;;;;;;20.80;13.18;;;;;;;20.41;43.03;99744.59;2318394;76;50602;-76
2020/12/03 14:21:02;;;;;;;17.70;12.98;;;;;;;20.42;42.98;99748.91;2318186;76;51566;-75